Time;durP1;ratioP1;P1;durP2;ratioP2;P2;SDS_P1;SDS_P2;PMS_P1;PMS_P2;Temp;Humidity;BMP_temperature;BMP_pressure;BME280_temperature;BME280_humidity;BME280_pressure;Samples;Min_cycle;Max_cycle;Signal;HPM_P1;HPM_P2
2023/03/31 00:00:43;;;;;;;11.27;5.15;;;;;;;9.07;44.78;100178.69;5069253;28;20575;-27
2023/03/31 00:03:20;;;;;;;17.33;7.47;;;;;;;9.13;45.00;100182.38;5069379;28;20032;-27
2023/03/31 00:05:47;;;;;;;11.32;5.43;;;;;;;9.07;45.43;100178.69;5069396;28;20024;-27
2023/03/31 00:08:13;;;;;;;7.55;3.10;;;;;;;8.91;46.21;100179.13;5069387;28;20035;-27
2023/03/31 00:10:44;;;;;;;6.70;3.20;;;;;;;8.63;46.99;100172.16;5069186;28;20036;-26
2023/03/31 00:13:10;;;;;;;5.82;3.10;;;;;;;8.79;47.06;100169.09;5069060;28;20054;-26
2023/03/31 00:15:35;;;;;;;7.50;3.20;;;;;;;8.95;46.93;100167.03;5068864;28;20062;-27
2023/03/31 00:18:01;;;;;;;5.60;2.78;;;;;;;9.07;46.80;100164.59;5069041;28;20036;-27
2023/03/31 00:20:27;;;;;;;7.32;3.75;;;;;;;8.91;46.93;100150.69;5068964;28;20033;-27
2023/03/31 00:22:53;;;;;;;5.47;3.10;;;;;;;8.94;47.59;100158.25;5069326;28;20028;-27
2023/03/31 00:25:19;;;;;;;11.80;6.80;;;;;;;8.79;47.96;100166.44;5069032;28;20027;-27
2023/03/31 00:27:45;;;;;;;6.70;3.28;;;;;;;8.73;48.13;100167.25;5068443;28;20063;-27
2023/03/31 00:30:14;;;;;;;5.03;2.80;;;;;;;8.72;48.25;100159.47;5068625;28;20060;-26
2023/03/31 00:32:40;;;;;;;7.90;2.67;;;;;;;8.94;48.64;100170.75;5068865;28;20032;-27
2023/03/31 00:35:05;;;;;;;5.13;2.83;;;;;;;8.99;48.00;100162.94;5068773;28;20462;-27
2023/03/31 00:37:32;;;;;;;6.35;2.60;;;;;;;9.02;47.81;100160.69;5068318;28;20071;-27
2023/03/31 00:39:58;;;;;;;7.07;3.13;;;;;;;8.99;47.54;100166.44;5068700;28;20518;-28
2023/03/31 00:42:24;;;;;;;5.93;2.72;;;;;;;8.86;48.09;100166.44;5068924;28;20017;-27
2023/03/31 00:45:15;;;;;;;6.05;2.78;;;;;;;8.92;48.63;100159.50;5068678;28;20028;-27
2023/03/31 00:47:48;;;;;;;5.25;2.67;;;;;;;8.77;48.35;100136.59;5068760;28;20020;-27
2023/03/31 00:50:20;;;;;;;6.45;2.65;;;;;;;8.62;49.46;100154.56;5068600;28;20055;-27
2023/03/31 00:52:50;;;;;;;5.90;2.80;;;;;;;8.90;49.84;100157.03;5068677;28;20357;-27
2023/03/31 00:55:20;;;;;;;7.10;3.00;;;;;;;9.01;49.25;100155.56;5068574;28;20032;-26
2023/03/31 00:57:47;;;;;;;4.85;2.70;;;;;;;8.98;49.45;100158.66;5068503;28;20024;-27
2023/03/31 01:00:15;;;;;;;7.53;3.55;;;;;;;9.02;49.56;100154.56;5067980;28;20052;-27
2023/03/31 01:02:50;;;;;;;6.15;2.95;;;;;;;8.75;50.22;100143.13;5068169;28;20527;-27
2023/03/31 01:05:18;;;;;;;5.93;2.80;;;;;;;8.60;50.70;100151.28;5068101;28;20507;-27
2023/03/31 01:07:47;;;;;;;7.80;3.47;;;;;;;8.48;50.88;100143.13;5068303;28;20642;-26
2023/03/31 01:10:12;;;;;;;6.63;2.97;;;;;;;8.53;50.70;100142.50;5067809;28;20033;-26
2023/03/31 01:12:41;;;;;;;5.05;3.00;;;;;;;8.08;51.92;100115.63;5068554;28;20032;-27
2023/03/31 01:15:07;;;;;;;5.97;3.15;;;;;;;8.30;51.26;100135.72;5067760;28;20025;-27
2023/03/31 01:17:34;;;;;;;6.30;2.97;;;;;;;8.29;51.85;100149.19;5067906;28;20075;-27
2023/03/31 01:20:31;;;;;;;7.20;3.40;;;;;;;8.09;52.20;100138.50;5067702;28;20082;-27
2023/03/31 01:23:30;;;;;;;8.40;3.42;;;;;;;7.95;52.88;100143.81;5067916;28;20033;-27
2023/03/31 01:26:01;;;;;;;9.77;4.38;;;;;;;8.21;51.66;100136.91;5059812;28;20044;-26
2023/03/31 01:28:51;;;;;;;7.85;3.60;;;;;;;8.22;51.66;100135.91;5067600;28;20039;-26
2023/03/31 01:31:42;;;;;;;6.68;3.58;;;;;;;8.14;51.84;100139.56;5067767;28;20523;-27
2023/03/31 01:34:35;;;;;;;6.57;3.75;;;;;;;8.17;52.05;100146.28;5068122;28;20055;-26
2023/03/31 01:37:22;;;;;;;6.32;2.92;;;;;;;7.65;53.30;100148.59;5067558;28;20036;-27
2023/03/31 01:40:06;;;;;;;5.60;2.80;;;;;;;7.39;54.58;100151.91;5066853;28;20119;-27
2023/03/31 01:42:39;;;;;;;6.45;3.50;;;;;;;7.18;55.18;100121.81;5067765;28;20041;-27
2023/03/31 01:45:38;;;;;;;12.25;3.90;;;;;;;7.56;54.68;100141.78;5067374;28;20024;-27
2023/03/31 01:48:05;;;;;;;7.30;3.75;;;;;;;7.37;55.33;100141.50;5067052;28;20051;-28
2023/03/31 01:50:33;;;;;;;10.07;3.45;;;;;;;7.50;54.84;100135.47;5067418;28;20097;-27
2023/03/31 01:53:17;;;;;;;6.60;3.25;;;;;;;7.51;54.07;100125.66;5067434;28;20036;-26
2023/03/31 01:55:57;;;;;;;6.30;3.50;;;;;;;7.19;55.07;100120.81;5067429;28;20037;-27
2023/03/31 01:58:31;;;;;;;5.78;3.40;;;;;;;7.05;55.42;100100.53;5067531;28;20052;-27
2023/03/31 02:01:28;;;;;;;7.32;3.65;;;;;;;7.20;55.64;100114.47;5066858;28;20087;-27
2023/03/31 02:04:18;;;;;;;6.38;3.33;;;;;;;7.40;55.25;100129.69;5066802;28;20031;-27
2023/03/31 02:06:51;;;;;;;6.93;3.60;;;;;;;7.35;55.19;100121.50;5067096;28;20415;-27
2023/03/31 02:09:21;;;;;;;6.22;3.17;;;;;;;7.17;56.41;100125.50;5067027;28;20028;-27
2023/03/31 02:11:49;;;;;;;6.85;3.40;;;;;;;7.05;56.18;100095.22;5067218;28;20024;-26
2023/03/31 02:14:20;;;;;;;6.35;3.47;;;;;;;7.09;55.40;100103.59;5067174;28;20029;-27
2023/03/31 02:16:50;;;;;;;6.07;3.45;;;;;;;7.48;54.72;100118.91;5066846;28;20098;-28
2023/03/31 02:19:20;;;;;;;8.30;4.10;;;;;;;7.37;54.93;100101.69;5066781;28;20056;-26
2023/03/31 02:21:49;;;;;;;7.55;4.72;;;;;;;7.52;55.46;100130.78;5066666;28;20163;-27
2023/03/31 02:24:18;;;;;;;12.63;9.50;;;;;;;7.38;55.70;100100.69;5066510;28;20066;-26
2023/03/31 02:26:55;;;;;;;10.77;8.00;;;;;;;7.38;55.50;100100.69;5066837;28;20032;-27
2023/03/31 02:29:21;;;;;;;11.70;6.22;;;;;;;7.43;55.42;100110.72;5066670;28;20031;-27
2023/03/31 02:31:54;;;;;;;12.57;6.22;;;;;;;7.47;55.91;100104.00;5066626;28;20135;-27
2023/03/31 02:34:20;;;;;;;12.70;6.43;;;;;;;7.37;56.18;100098.22;5066642;28;20111;-27
2023/03/31 02:36:48;;;;;;;17.90;8.80;;;;;;;7.40;55.60;100109.28;5066881;28;20112;-27
2023/03/31 02:39:22;;;;;;;13.23;8.32;;;;;;;7.30;56.39;100100.88;5066553;28;20106;-27
2023/03/31 02:41:48;;;;;;;15.75;8.00;;;;;;;7.33;56.32;100103.09;5066121;28;20427;-27
2023/03/31 02:44:15;;;;;;;14.80;6.97;;;;;;;7.70;54.95;100105.50;5066264;28;20124;-27
2023/03/31 02:46:41;;;;;;;17.50;7.93;;;;;;;7.71;55.57;100112.47;5066368;28;20040;-27
2023/03/31 02:49:10;;;;;;;12.45;6.00;;;;;;;7.62;55.02;100106.50;5066473;28;20016;-27
2023/03/31 02:52:07;;;;;;;18.77;9.98;;;;;;;7.41;56.11;100115.41;5065985;28;20028;-27
2023/03/31 02:54:32;;;;;;;13.75;7.80;;;;;;;7.27;56.04;100108.38;5055386;28;20036;-26
2023/03/31 02:57:01;;;;;;;14.35;6.57;;;;;;;7.44;56.29;100115.03;5066381;28;20117;-27
2023/03/31 02:59:26;;;;;;;;;;;;;;;7.16;57.04;100113.22;5066257;28;20079;-27
2023/03/31 03:01:58;;;;;;;9.18;5.28;;;;;;;7.57;55.68;100115.06;5065873;28;19924;-27
2023/03/31 03:04:35;;;;;;;10.07;4.70;;;;;;;7.60;55.34;100127.09;5065904;28;20043;-27
2023/03/31 03:07:28;;;;;;;8.93;4.60;;;;;;;7.69;55.13;100111.84;5066047;28;20043;-27
2023/03/31 03:09:59;;;;;;;10.77;5.03;;;;;;;7.60;55.59;100113.84;5066061;28;20028;-27
2023/03/31 03:12:27;;;;;;;8.18;4.65;;;;;;;7.70;55.78;100113.47;5066621;28;20040;-27
2023/03/31 03:15:05;;;;;;;8.90;4.85;;;;;;;7.57;55.04;100088.53;5066094;28;20564;-27
2023/03/31 03:17:38;;;;;;;8.40;4.40;;;;;;;7.57;54.77;100119.56;5066040;28;20032;-27
2023/03/31 03:20:09;;;;;;;8.73;4.88;;;;;;;7.76;55.28;100113.50;5066164;28;20059;-27
2023/03/31 03:22:36;;;;;;;10.50;4.75;;;;;;;7.67;54.78;100108.59;5066016;28;20090;-27
2023/03/31 03:25:04;;;;;;;8.32;4.80;;;;;;;7.69;54.43;100093.28;5066083;28;20085;-27
2023/03/31 03:27:31;;;;;;;10.13;4.45;;;;;;;7.47;56.24;100119.09;5066012;28;20017;-27
2023/03/31 03:29:57;;;;;;;10.88;5.03;;;;;;;7.53;56.65;100121.78;5065816;28;20081;-27
2023/03/31 03:32:22;;;;;;;27.23;13.10;;;;;;;7.49;56.17;100128.50;5066048;28;20036;-26
2023/03/31 03:34:48;;;;;;;31.00;13.52;;;;;;;7.79;57.43;100126.38;5066010;28;20048;-27
2023/03/31 03:37:14;;;;;;;71.70;29.77;;;;;;;7.38;57.86;100127.22;5065556;28;20419;-27
2023/03/31 03:39:39;;;;;;;17.48;8.82;;;;;;;7.15;60.51;100126.69;5065758;28;20064;-27
2023/03/31 03:42:05;;;;;;;9.88;5.32;;;;;;;6.94;60.33;100119.63;5065848;28;20029;-25
2023/03/31 03:44:30;;;;;;;15.73;9.23;;;;;;;6.93;60.20;100116.16;5065940;28;20035;-27
2023/03/31 03:46:56;;;;;;;13.18;6.82;;;;;;;7.29;59.07;100127.56;5065945;28;20037;-27
2023/03/31 03:49:21;;;;;;;39.33;21.15;;;;;;;7.24;57.35;100117.56;5065853;28;20697;-26
2023/03/31 03:51:47;;;;;;;19.27;9.88;;;;;;;7.62;56.81;100125.91;5065608;28;20431;-27
2023/03/31 03:54:12;;;;;;;26.17;13.18;;;;;;;7.54;56.91;100123.44;5065884;28;20112;-27
2023/03/31 03:56:37;;;;;;;22.60;13.50;;;;;;;7.49;57.59;100128.50;5065396;28;20412;-28
2023/03/31 03:59:03;;;;;;;11.57;6.93;;;;;;;7.77;55.91;100130.25;5065792;28;20029;-27
2023/03/31 04:01:29;;;;;;;11.52;5.82;;;;;;;7.89;55.57;100123.34;5065396;28;20404;-27
2023/03/31 04:03:54;;;;;;;11.15;6.55;;;;;;;7.87;55.36;100130.72;5066953;28;20116;-27
2023/03/31 04:06:20;;;;;;;13.43;7.90;;;;;;;7.94;55.25;100126.22;5069195;28;20048;-27
2023/03/31 04:08:45;;;;;;;15.77;8.88;;;;;;;7.69;56.19;100127.78;5069405;28;20058;-27
2023/03/31 04:11:14;;;;;;;26.70;15.00;;;;;;;7.67;57.10;100111.22;5069457;28;20021;-27
2023/03/31 04:13:39;;;;;;;17.73;9.55;;;;;;;7.87;57.93;100128.06;5069002;28;20030;-27
2023/03/31 04:16:06;;;;;;;14.32;8.73;;;;;;;7.87;59.38;100141.31;5069272;28;20029;-27
2023/03/31 04:18:31;;;;;;;12.98;8.18;;;;;;;7.81;60.60;100132.31;5068871;28;20025;-26
2023/03/31 04:21:02;;;;;;;19.73;12.18;;;;;;;7.44;59.37;100131.75;5069201;28;20029;-27
2023/03/31 04:23:45;;;;;;;13.85;9.32;;;;;;;7.10;62.82;100099.94;5068979;28;20033;-27
2023/03/31 04:26:11;;;;;;;14.40;8.77;;;;;;;7.14;63.57;100119.75;5069425;28;20060;-27
2023/03/31 04:28:41;;;;;;;11.38;7.50;;;;;;;7.05;65.79;100111.13;5069075;28;20035;-27
2023/03/31 04:31:09;;;;;;;10.25;6.22;;;;;;;6.74;64.08;100091.16;5069232;28;20064;-26
2023/03/31 04:33:37;;;;;;;12.80;6.65;;;;;;;7.17;63.00;100112.22;5068859;28;20024;-26
2023/03/31 04:36:19;;;;;;;8.40;5.07;;;;;;;7.57;60.86;100120.38;5068677;28;20036;-27
2023/03/31 04:38:46;;;;;;;17.05;5.63;;;;;;;7.69;59.08;100133.91;5068484;28;20039;-27
2023/03/31 04:41:15;;;;;;;9.95;6.05;;;;;;;7.74;58.34;100136.75;5068730;28;20251;-27
2023/03/31 04:43:41;;;;;;;12.57;6.90;;;;;;;8.10;56.73;100137.50;5068516;28;20020;-27
2023/03/31 04:46:07;;;;;;;13.90;7.53;;;;;;;7.83;58.51;100121.50;5068828;28;20025;-27
2023/03/31 04:48:33;;;;;;;13.30;7.60;;;;;;;7.69;59.66;100125.13;5068620;28;20145;-27
2023/03/31 04:50:58;;;;;;;13.85;7.38;;;;;;;8.21;57.71;100115.66;5068722;28;20550;-27
2023/03/31 04:53:25;;;;;;;16.75;9.43;;;;;;;7.90;59.61;100124.97;5068645;28;20423;-27
2023/03/31 04:55:51;;;;;;;12.27;8.32;;;;;;;7.99;60.12;100110.50;5068507;28;20025;-27
2023/03/31 04:58:16;;;;;;;11.73;6.55;;;;;;;8.12;59.11;100116.88;5068595;28;20400;-27
2023/03/31 05:00:42;;;;;;;11.30;6.40;;;;;;;8.27;58.22;100104.22;5068148;28;20051;-27
2023/03/31 05:03:08;;;;;;;10.68;6.45;;;;;;;8.31;58.00;100108.09;5068604;28;20090;-27
2023/03/31 05:05:34;;;;;;;19.52;9.80;;;;;;;8.01;60.09;100100.50;5068313;28;20463;-27
2023/03/31 05:08:00;;;;;;;10.85;5.60;;;;;;;7.97;60.93;100112.56;5068270;28;20032;-27
2023/03/31 05:10:26;;;;;;;10.65;4.78;;;;;;;8.27;60.38;100108.72;5068625;28;20039;-27
2023/03/31 05:12:51;;;;;;;10.40;5.45;;;;;;;8.14;59.98;100113.00;5067590;28;20464;-27
2023/03/31 05:15:17;;;;;;;9.10;5.22;;;;;;;7.91;60.75;100109.88;5068081;28;20035;-27
2023/03/31 05:17:42;;;;;;;28.17;11.50;;;;;;;7.88;60.67;100099.66;5068037;28;20025;-27
2023/03/31 05:20:08;;;;;;;107.88;32.30;;;;;;;8.34;60.25;100097.09;5068153;28;20017;-27
2023/03/31 05:22:38;;;;;;;45.58;18.30;;;;;;;8.08;61.27;100099.72;5067833;28;20032;-26
2023/03/31 05:25:06;;;;;;;21.83;11.93;;;;;;;7.91;60.95;100046.97;5067902;28;20032;-26
2023/03/31 05:27:32;;;;;;;27.13;13.32;;;;;;;7.97;62.35;100088.66;5068260;28;20025;-27
2023/03/31 05:29:58;;;;;;;18.55;10.82;;;;;;;7.96;61.08;100073.72;5067772;28;20031;-27
2023/03/31 05:32:25;;;;;;;8.73;5.13;;;;;;;7.83;59.85;100079.03;5067672;28;20422;-27
2023/03/31 05:34:51;;;;;;;21.73;17.67;;;;;;;8.33;58.29;100068.88;5066966;28;20082;-27
2023/03/31 05:37:18;;;;;;;27.27;24.77;;;;;;;8.13;59.10;100076.00;5067750;28;20503;-27
2023/03/31 05:39:44;;;;;;;10.55;6.63;;;;;;;8.11;59.04;100067.41;5067847;28;20032;-27
2023/03/31 05:42:09;;;;;;;9.70;5.70;;;;;;;8.08;59.56;100067.84;5067587;28;20041;-28
2023/03/31 05:44:35;;;;;;;15.00;11.60;;;;;;;8.34;58.39;100061.72;5067468;28;20024;-27
2023/03/31 05:47:00;;;;;;;10.95;6.85;;;;;;;8.01;61.20;100065.97;5067537;28;20028;-27
2023/03/31 05:49:26;;;;;;;11.65;6.45;;;;;;;8.08;61.91;100070.50;5067353;28;20020;-27
2023/03/31 05:51:52;;;;;;;13.32;10.48;;;;;;;8.29;61.37;100070.28;5067246;28;20032;-27
2023/03/31 05:54:18;;;;;;;9.45;7.03;;;;;;;8.21;60.29;100075.81;5067155;28;20032;-27
2023/03/31 05:56:43;;;;;;;14.57;8.68;;;;;;;8.37;60.40;100077.25;5067451;28;20029;-27
2023/03/31 05:59:09;;;;;;;12.98;7.05;;;;;;;8.69;58.14;100072.97;5067143;28;20029;-27
2023/03/31 06:01:34;;;;;;;19.17;15.73;;;;;;;8.69;58.29;100072.97;5067123;28;20719;-27
2023/03/31 06:04:00;;;;;;;16.40;9.80;;;;;;;8.88;58.21;100073.16;5067189;28;20043;-27
2023/03/31 06:06:26;;;;;;;16.08;9.05;;;;;;;8.69;59.26;100057.03;5066864;28;20031;-28
2023/03/31 06:08:52;;;;;;;12.32;7.03;;;;;;;8.34;59.79;100065.19;5048939;28;20034;-27
2023/03/31 06:11:21;;;;;;;16.98;9.57;;;;;;;8.41;59.84;100058.06;5066455;28;20459;-27
2023/03/31 06:13:47;;;;;;;46.53;24.35;;;;;;;8.44;59.80;100052.34;5067176;28;20051;-28
2023/03/31 06:16:14;;;;;;;58.78;25.17;;;;;;;8.57;59.28;100056.03;5066749;28;20025;-27
2023/03/31 06:18:40;;;;;;;221.93;73.28;;;;;;;8.72;59.49;100053.13;5066740;28;20583;-27
2023/03/31 06:21:06;;;;;;;43.75;18.38;;;;;;;8.63;59.61;100056.00;5066547;28;20033;-27
2023/03/31 06:23:33;;;;;;;62.65;24.17;;;;;;;8.66;60.33;100060.09;5066997;28;20631;-27
2023/03/31 06:26:01;;;;;;;68.90;23.38;;;;;;;8.61;60.88;100035.97;5066309;28;20074;-27
2023/03/31 06:28:27;;;;;;;300.10;102.57;;;;;;;8.53;60.41;100039.66;5066829;28;20024;-27
2023/03/31 06:31:00;;;;;;;140.10;49.60;;;;;;;8.54;60.26;100040.47;5066736;28;20291;-27
2023/03/31 06:33:25;;;;;;;14.57;9.27;;;;;;;8.57;60.22;100040.06;5066423;28;20033;-27
2023/03/31 06:35:53;;;;;;;69.78;32.22;;;;;;;8.71;59.33;100039.03;5066904;28;20423;-27
2023/03/31 06:38:19;;;;;;;44.92;26.33;;;;;;;8.73;59.66;100047.63;5066694;28;20020;-27
2023/03/31 06:40:44;;;;;;;52.35;25.75;;;;;;;8.67;58.96;100055.59;5066634;28;20037;-29
2023/03/31 06:43:10;;;;;;;64.78;31.25;;;;;;;8.99;58.43;100051.22;5066415;28;20040;-27
2023/03/31 06:45:36;;;;;;;19.08;11.38;;;;;;;9.07;58.10;100050.19;5066683;28;20032;-27
2023/03/31 06:48:01;;;;;;;239.05;89.47;;;;;;;8.96;58.25;100049.00;5066091;28;20032;-27
2023/03/31 06:50:27;;;;;;;418.73;171.25;;;;;;;8.83;57.65;100040.03;5066551;28;20025;-27
2023/03/31 06:52:53;;;;;;;118.78;53.05;;;;;;;9.13;56.67;100044.84;5066405;28;20047;-27
2023/03/31 06:55:19;;;;;;;67.32;32.35;;;;;;;9.04;57.49;100035.47;5048255;28;20415;-27
2023/03/31 06:57:45;;;;;;;168.75;73.65;;;;;;;9.11;57.66;100036.25;5066416;28;20492;-27
2023/03/31 07:00:11;;;;;;;244.30;108.20;;;;;;;9.37;57.98;100035.34;5065817;28;20047;-27
2023/03/31 07:02:37;;;;;;;131.18;49.08;;;;;;;9.11;58.23;100030.94;5047623;28;20060;-27
2023/03/31 07:05:02;;;;;;;195.00;72.45;;;;;;;9.26;58.44;100038.69;5065724;28;20054;-27
2023/03/31 07:07:31;;;;;;;372.27;178.30;;;;;;;9.41;57.16;100033.09;5066141;28;20413;-27
2023/03/31 07:09:57;;;;;;;189.02;93.07;;;;;;;9.73;56.28;100023.28;5066267;28;20032;-27
2023/03/31 07:12:23;;;;;;;19.48;11.27;;;;;;;9.37;57.46;100030.03;5065846;28;20086;-27
2023/03/31 07:14:49;;;;;;;17.35;9.10;;;;;;;9.84;55.80;100027.91;5066062;28;20028;-27
2023/03/31 07:17:15;;;;;;;21.10;12.38;;;;;;;10.15;55.35;100020.13;5066167;28;20036;-27
2023/03/31 07:19:41;;;;;;;19.98;9.10;;;;;;;10.17;54.56;100026.06;5066277;28;20805;-27
2023/03/31 07:22:07;;;;;;;65.50;31.90;;;;;;;10.03;54.59;100025.34;5065623;28;20475;-27
2023/03/31 07:24:33;;;;;;;51.70;25.83;;;;;;;10.29;53.15;100032.31;5065994;28;20028;-27
2023/03/31 07:26:58;;;;;;;17.25;9.65;;;;;;;10.35;51.91;100026.13;5066308;28;20162;-27
2023/03/31 07:29:24;;;;;;;15.70;10.00;;;;;;;10.56;52.27;100027.63;5065720;28;20468;-27
2023/03/31 07:31:49;;;;;;;17.90;10.18;;;;;;;10.98;52.19;100026.97;5065651;28;20020;-27
2023/03/31 07:34:15;;;;;;;14.73;10.32;;;;;;;10.81;52.12;100024.91;5065920;28;20029;-27
2023/03/31 07:36:40;;;;;;;14.32;8.52;;;;;;;11.19;51.08;100026.50;5065184;28;20257;-28
2023/03/31 07:39:06;;;;;;;16.65;8.27;;;;;;;10.83;51.55;100028.16;5056262;28;20029;-27
2023/03/31 07:41:32;;;;;;;13.18;8.05;;;;;;;11.01;51.54;100024.69;5061610;28;20072;-27
2023/03/31 07:43:57;;;;;;;13.35;8.27;;;;;;;11.17;51.80;100023.25;5061901;28;20056;-27
2023/03/31 07:46:25;;;;;;;13.93;8.50;;;;;;;10.89;50.82;100010.47;5063282;28;20036;-27
2023/03/31 07:48:52;;;;;;;13.75;7.53;;;;;;;11.49;49.64;100027.59;5057725;28;20039;-27
2023/03/31 07:51:20;;;;;;;10.40;7.50;;;;;;;11.54;50.56;100006.34;5060351;28;20041;-27
2023/03/31 07:53:48;;;;;;;13.07;7.18;;;;;;;11.13;50.37;100027.41;5057931;28;20825;-27
2023/03/31 07:56:15;;;;;;;11.97;7.17;;;;;;;11.47;50.46;100011.81;5060443;28;20086;-27
2023/03/31 07:58:42;;;;;;;12.20;7.20;;;;;;;11.73;49.30;100009.78;5060340;28;20024;-26
2023/03/31 08:01:07;;;;;;;11.65;6.93;;;;;;;11.95;50.08;99997.59;5053448;28;20732;-27
2023/03/31 08:03:33;;;;;;;11.43;7.35;;;;;;;11.84;48.60;100006.34;5060586;28;20057;-27
2023/03/31 08:05:59;;;;;;;12.60;7.75;;;;;;;12.22;46.34;100007.84;5051112;28;20045;-27
2023/03/31 08:08:25;;;;;;;19.27;9.95;;;;;;;12.55;47.96;99998.44;5054487;28;20124;-28
2023/03/31 08:10:51;;;;;;;13.88;8.15;;;;;;;12.79;47.38;100000.06;5049059;28;20107;-27
2023/03/31 08:13:17;;;;;;;15.18;8.60;;;;;;;12.80;47.00;99999.00;5051779;28;20480;-27
2023/03/31 08:15:42;;;;;;;16.58;9.95;;;;;;;13.21;44.19;100009.72;5057929;28;20520;-27
2023/03/31 08:18:08;;;;;;;21.38;17.98;;;;;;;13.46;43.64;100002.22;5049365;28;20470;-27
2023/03/31 08:20:33;;;;;;;12.07;7.68;;;;;;;13.13;44.31;99991.34;5047465;28;20474;-27
2023/03/31 08:22:59;;;;;;;12.38;7.45;;;;;;;12.68;45.97;99987.47;5038324;28;20028;-27
2023/03/31 08:25:24;;;;;;;16.80;9.32;;;;;;;12.72;45.69;99983.28;5068866;28;20031;-27
2023/03/31 08:27:50;;;;;;;13.40;7.93;;;;;;;13.08;46.53;99978.69;5062717;28;20112;-27
2023/03/31 08:30:17;;;;;;;17.85;8.77;;;;;;;13.26;44.43;99969.69;5056009;28;20035;-27
2023/03/31 08:32:43;;;;;;;13.43;7.70;;;;;;;13.92;43.34;99951.28;5049178;28;20021;-27
2023/03/31 08:35:09;;;;;;;14.35;8.85;;;;;;;14.24;43.76;99958.72;5057541;28;20091;-27
2023/03/31 08:37:36;;;;;;;16.38;10.63;;;;;;;14.31;42.78;99962.06;5038091;28;20140;-27
2023/03/31 08:40:08;;;;;;;15.82;7.93;;;;;;;14.33;42.59;99951.91;5049114;28;20025;-27
2023/03/31 08:42:43;;;;;;;23.85;18.27;;;;;;;14.57;42.09;99943.69;5059449;28;20028;-27
2023/03/31 08:45:22;;;;;;;12.32;7.82;;;;;;;14.49;42.99;99933.34;5048311;28;20043;-27
2023/03/31 08:47:53;;;;;;;13.60;6.72;;;;;;;14.42;41.91;99910.16;5058009;28;20116;-28
2023/03/31 08:50:24;;;;;;;12.18;7.03;;;;;;;14.57;43.56;99922.22;5048190;28;20054;-27
2023/03/31 08:53:30;;;;;;;9.07;5.75;;;;;;;14.33;42.39;99919.72;5054254;28;20028;-27
2023/03/31 08:55:57;;;;;;;10.48;6.03;;;;;;;14.74;42.83;99917.59;5048321;28;20577;-27
2023/03/31 08:58:42;;;;;;;10.43;6.70;;;;;;;14.66;42.04;99913.47;5050984;28;20046;-27
2023/03/31 09:01:36;;;;;;;10.55;6.40;;;;;;;15.03;40.58;99912.03;5059997;28;20091;-27
2023/03/31 09:04:23;;;;;;;11.13;6.57;;;;;;;15.04;42.71;99892.16;5067768;28;20039;-27
2023/03/31 09:07:15;;;;;;;12.63;7.37;;;;;;;15.20;41.58;99885.88;5060965;28;20052;-27
2023/03/31 09:09:59;;;;;;;10.82;6.35;;;;;;;15.25;41.94;99890.50;5052398;28;20087;-27
2023/03/31 09:12:44;;;;;;;10.80;6.65;;;;;;;15.13;41.95;99877.22;5047929;28;20040;-27
2023/03/31 09:15:16;;;;;;;10.98;6.47;;;;;;;15.71;39.89;99868.56;5058685;28;20037;-27
2023/03/31 09:17:44;;;;;;;12.52;7.55;;;;;;;15.91;40.88;99884.88;5047766;28;20021;-27
2023/03/31 09:20:35;;;;;;;12.68;7.20;;;;;;;16.45;39.75;99873.09;5047861;28;20464;-27
2023/03/31 09:23:22;;;;;;;11.90;7.07;;;;;;;15.99;39.87;99870.16;5048250;28;20036;-28
2023/03/31 09:25:48;;;;;;;16.20;6.73;;;;;;;15.60;39.78;99860.44;5054449;28;20029;-27
2023/03/31 09:28:31;;;;;;;11.27;5.78;;;;;;;15.60;41.00;99836.25;5067616;28;20031;-27
2023/03/31 09:30:57;;;;;;;12.57;6.60;;;;;;;15.51;40.75;99853.91;5064626;28;20017;-27
2023/03/31 09:33:33;;;;;;;12.80;8.52;;;;;;;15.34;41.19;99853.22;5056019;28;20032;-27
2023/03/31 09:36:12;;;;;;;12.23;6.93;;;;;;;15.64;41.78;99842.72;5064345;28;20507;-27
2023/03/31 09:38:39;;;;;;;10.82;6.15;;;;;;;15.92;41.04;99850.75;5067463;28;20035;-27
2023/03/31 09:41:04;;;;;;;11.82;7.70;;;;;;;16.43;40.13;99837.56;5067445;28;20156;-27
2023/03/31 09:43:34;;;;;;;13.68;7.53;;;;;;;16.87;39.89;99837.19;5048601;28;20144;-27
2023/03/31 09:46:00;;;;;;;17.50;13.98;;;;;;;17.04;37.55;99847.69;5066311;28;20032;-27
2023/03/31 09:48:29;;;;;;;10.88;6.75;;;;;;;16.89;39.05;99818.06;5065708;28;20750;-27
2023/03/31 09:50:59;;;;;;;10.00;6.35;;;;;;;17.21;40.27;99821.34;5065399;28;20150;-27
2023/03/31 09:53:49;;;;;;;14.60;7.05;;;;;;;17.24;38.79;99834.28;5065990;28;20060;-29
2023/03/31 09:56:44;;;;;;;10.90;6.40;;;;;;;17.17;38.36;99809.47;5064027;28;20049;-27
2023/03/31 09:59:16;;;;;;;10.98;6.40;;;;;;;16.83;39.08;99812.66;5065656;28;20103;-27
2023/03/31 10:01:44;;;;;;;12.38;7.80;;;;;;;16.41;38.94;99832.44;5064593;28;20032;-27
2023/03/31 10:04:19;;;;;;;13.98;8.45;;;;;;;17.24;39.53;99804.63;5065401;28;20043;-27
2023/03/31 10:06:46;;;;;;;12.02;6.45;;;;;;;17.41;38.80;99798.16;5065577;28;20024;-27
2023/03/31 10:09:12;;;;;;;14.68;8.10;;;;;;;17.98;37.58;99797.03;5065762;28;20077;-27
2023/03/31 10:11:38;;;;;;;11.07;6.80;;;;;;;18.30;37.04;99803.91;5065264;28;20028;-28
2023/03/31 10:14:12;;;;;;;15.88;11.13;;;;;;;17.94;37.19;99763.56;5065238;28;20051;-27
2023/03/31 10:16:46;;;;;;;13.38;8.05;;;;;;;17.98;36.70;99799.72;5065495;28;20023;-27
2023/03/31 10:19:17;;;;;;;12.30;6.60;;;;;;;17.90;38.04;99794.88;5064325;28;20028;-27
2023/03/31 10:21:46;;;;;;;17.92;11.82;;;;;;;17.75;37.82;99786.78;5066288;28;20078;-27
2023/03/31 10:24:18;;;;;;;11.93;6.88;;;;;;;17.87;37.53;99768.44;5065171;28;20064;-27
2023/03/31 10:26:51;;;;;;;12.70;7.63;;;;;;;18.41;36.76;99767.69;5066681;28;20086;-27
2023/03/31 10:29:30;;;;;;;10.68;6.78;;;;;;;18.61;36.76;99766.78;5066557;28;20035;-27
2023/03/31 10:32:03;;;;;;;13.88;7.47;;;;;;;18.37;37.88;99765.81;5066781;28;20029;-27
2023/03/31 10:34:29;;;;;;;11.70;7.22;;;;;;;18.29;38.56;99767.22;5066666;28;20040;-27
2023/03/31 10:36:55;;;;;;;17.95;10.93;;;;;;;17.93;38.11;99750.34;5066251;28;20043;-27
2023/03/31 10:39:29;;;;;;;13.23;8.10;;;;;;;17.89;38.10;99722.31;5066432;28;20024;-27
2023/03/31 10:41:54;;;;;;;13.07;6.68;;;;;;;18.07;38.93;99740.59;5048652;28;20032;-27
2023/03/31 10:44:37;;;;;;;10.48;7.07;;;;;;;17.54;39.50;99711.31;5065332;28;20511;-27
2023/03/31 10:47:20;;;;;;;10.52;6.07;;;;;;;17.73;39.91;99697.25;5066436;28;20053;-27
2023/03/31 10:49:50;;;;;;;11.75;6.22;;;;;;;17.83;38.27;99695.34;5065365;28;20036;-27
2023/03/31 10:52:26;;;;;;;11.07;6.20;;;;;;;17.92;39.66;99711.78;5066218;28;20028;-27
2023/03/31 10:54:59;;;;;;;11.77;6.05;;;;;;;18.00;39.16;99708.50;5066204;28;20099;-27
2023/03/31 10:57:54;;;;;;;12.65;6.50;;;;;;;18.52;38.80;99710.94;5066077;28;20029;-27
2023/03/31 11:00:48;;;;;;;10.02;5.63;;;;;;;18.65;38.20;99680.56;5059334;28;20045;-28
2023/03/31 11:03:29;;;;;;;11.10;5.57;;;;;;;19.44;38.74;99707.47;5066403;28;20032;-27
2023/03/31 11:06:07;;;;;;;10.05;5.38;;;;;;;19.56;37.69;99696.28;5066089;28;20075;-26
2023/03/31 11:08:41;;;;;;;8.27;4.53;;;;;;;20.11;35.81;99704.03;5066494;28;20021;-27
2023/03/31 11:11:41;;;;;;;8.18;4.90;;;;;;;20.91;35.03;99688.78;5066120;28;20029;-27
2023/03/31 11:14:15;;;;;;;6.80;4.53;;;;;;;20.44;34.51;99696.78;5065904;28;20134;-27
2023/03/31 11:16:58;;;;;;;7.40;4.47;;;;;;;20.78;34.73;99669.47;5065873;28;20039;-27
2023/03/31 11:19:30;;;;;;;8.68;4.47;;;;;;;21.70;35.33;99682.47;5066329;28;20034;-27
2023/03/31 11:22:23;;;;;;;9.00;4.93;;;;;;;22.01;33.93;99669.88;5066237;28;20067;-27
2023/03/31 11:25:10;;;;;;;9.15;4.35;;;;;;;22.43;32.10;99673.31;5066025;28;20034;-27
2023/03/31 11:27:55;;;;;;;9.33;6.03;;;;;;;22.58;32.68;99668.63;5066141;28;20153;-27
2023/03/31 11:30:32;;;;;;;7.82;5.40;;;;;;;22.14;33.17;99656.56;5066192;28;20036;-27
2023/03/31 11:33:01;;;;;;;34.45;30.98;;;;;;;22.83;31.73;99654.41;5065961;28;20111;-27
2023/03/31 11:35:49;;;;;;;10.05;4.70;;;;;;;22.36;32.03;99653.91;5066068;28;20032;-27
2023/03/31 11:38:34;;;;;;;8.35;4.97;;;;;;;21.31;32.93;99643.88;5066128;28;20021;-27
2023/03/31 11:41:14;;;;;;;8.60;4.75;;;;;;;21.30;33.34;99636.81;5065728;28;20097;-27